createdAt,value
2019-01-26T00:00:20.849Z,126.27
2019-01-26T00:02:50.284Z,127.25
2019-01-26T00:05:19.971Z,127.20
2019-01-26T00:07:49.751Z,127.60
2019-01-26T00:10:19.469Z,121.37
2019-01-26T00:12:48.951Z,123.18
2019-01-26T00:15:18.529Z,134.18
2019-01-26T00:17:48.131Z,135.20
2019-01-26T00:20:17.566Z,130.43
2019-01-26T00:22:47.419Z,141.50
2019-01-26T00:25:16.886Z,130.30
2019-01-26T00:27:46.359Z,138.10
2019-01-26T00:30:16.093Z,137.75
2019-01-26T00:32:45.583Z,134.73
2019-01-26T00:35:15.128Z,130.55
2019-01-26T00:37:44.956Z,148.62
2019-01-26T00:40:14.550Z,146.93
2019-01-26T00:42:44.097Z,138.40
2019-01-26T00:45:13.779Z,116.88
2019-01-26T00:47:43.871Z,136.30
2019-01-26T00:50:13.602Z,134.35
2019-01-26T00:52:43.149Z,148.80
2019-01-26T00:55:12.610Z,145.28
2019-01-26T00:57:42.060Z,135.85
2019-01-26T01:00:13.882Z,149.55
2019-01-26T01:02:43.745Z,140.95
2019-01-26T01:05:13.927Z,153.68
2019-01-26T01:07:43.477Z,154.90
2019-01-26T01:10:13.630Z,148.22
2019-01-26T01:12:43.083Z,148.17
2019-01-26T01:15:13.262Z,142.72
2019-01-26T01:17:42.827Z,144.20
2019-01-26T01:20:12.923Z,153.32
2019-01-26T01:22:42.481Z,151.93
2019-01-26T01:25:12.090Z,157.20
2019-01-26T01:27:41.579Z,148.32
2019-01-26T01:30:13.529Z,139.97
2019-01-26T01:32:43.180Z,146.70
2019-01-26T01:35:14.035Z,139.03
2019-01-26T01:37:43.525Z,142.10
2019-01-26T01:40:14.003Z,147.43
2019-01-26T01:42:43.462Z,138.28
2019-01-26T01:45:16.063Z,146.82
2019-01-26T01:47:45.649Z,134.90
2019-01-26T01:50:16.249Z,141.88
2019-01-26T01:52:45.808Z,143.17
2019-01-26T01:55:15.364Z,142.60
2019-01-26T01:57:44.901Z,144.13
2019-01-26T02:00:20.298Z,147.78
2019-01-26T02:02:49.821Z,143.02
2019-01-26T02:05:19.292Z,141.35
2019-01-26T02:07:48.771Z,146.10
2019-01-26T02:10:19.725Z,119.10
2019-01-26T02:12:49.502Z,138.07
2019-01-26T02:15:18.918Z,146.30
2019-01-26T02:17:48.373Z,140.18
2019-01-26T02:20:20.114Z,150.18
2019-01-26T02:22:49.560Z,146.55
2019-01-26T02:25:19.179Z,145.97
2019-01-26T02:27:48.638Z,137.53
2019-01-26T02:30:20.474Z,144.72
2019-01-26T02:32:50.005Z,145.47
2019-01-26T02:35:19.515Z,140.37
2019-01-26T02:37:48.983Z,147.62
2019-01-26T02:40:18.625Z,135.48
2019-01-26T02:42:48.087Z,141.47
2019-01-26T02:45:17.656Z,150.38
2019-01-26T02:47:47.103Z,140.65
2019-01-26T02:50:18.175Z,145.50
2019-01-26T02:52:47.640Z,148.93
2019-01-26T02:55:17.125Z,141.43
2019-01-26T02:57:46.573Z,146.18
2019-01-26T03:00:21.826Z,147.95
2019-01-26T03:02:51.313Z,140.75
2019-01-26T03:05:20.742Z,138.57
2019-01-26T03:07:50.810Z,146.65
2019-01-26T03:10:22.692Z,111.57
2019-01-26T03:12:52.190Z,148.70
2019-01-26T03:15:23.104Z,140.62
2019-01-26T03:17:52.564Z,140.15
2019-01-26T03:20:22.062Z,145.53
2019-01-26T03:22:51.485Z,143.78
2019-01-26T03:25:21.266Z,145.82
2019-01-26T03:27:50.685Z,151.63
2019-01-26T03:30:22.650Z,143.52
2019-01-26T03:32:52.101Z,130.52
2019-01-26T03:35:21.721Z,133.50
2019-01-26T03:37:51.171Z,153.00
2019-01-26T03:40:22.429Z,155.03
2019-01-26T03:42:51.891Z,148.82
2019-01-26T03:45:21.340Z,148.28
2019-01-26T03:47:50.948Z,146.32
2019-01-26T03:50:20.400Z,150.32
2019-01-26T03:52:49.840Z,149.53
2019-01-26T03:55:20.386Z,134.95
2019-01-26T03:57:50.006Z,141.33
2019-01-26T04:00:22.411Z,141.67
2019-01-26T04:02:52.052Z,140.35
2019-01-26T04:05:21.514Z,144.45
2019-01-26T04:07:51.044Z,144.53
2019-01-26T04:10:20.794Z,139.72
2019-01-26T04:12:50.173Z,128.50
2019-01-26T04:15:20.105Z,133.00
2019-01-26T04:17:49.600Z,139.72
2019-01-26T04:20:20.506Z,121.07
2019-01-26T04:22:50.065Z,132.25
2019-01-26T04:25:19.514Z,137.32
2019-01-26T04:27:49.025Z,111.75
2019-01-26T04:30:20.571Z,133.45
2019-01-26T04:32:50.049Z,132.18
2019-01-26T04:35:19.885Z,132.78
2019-01-26T04:37:49.371Z,139.72
2019-01-26T04:40:19.295Z,127.65
2019-01-26T04:42:48.693Z,136.70
2019-01-26T04:45:20.585Z,119.67
2019-01-26T04:47:50.033Z,121.33
2019-01-26T04:50:20.083Z,134.75
2019-01-26T04:52:49.507Z,119.02
2019-01-26T04:55:19.933Z,124.25
2019-01-26T04:57:49.502Z,121.25
2019-01-26T05:00:21.707Z,122.10
2019-01-26T05:02:51.191Z,124.78
2019-01-26T05:05:20.631Z,122.78
2019-01-26T05:07:51.303Z,126.20
2019-01-26T05:10:20.771Z,122.20
2019-01-26T05:12:50.740Z,111.17
2019-01-26T05:15:20.706Z,120.02
2019-01-26T05:17:50.205Z,118.93
2019-01-26T05:20:21.965Z,115.52
2019-01-26T05:22:51.603Z,121.70
2019-01-26T05:25:21.141Z,113.83
2019-01-26T05:27:51.132Z,114.28
2019-01-26T05:30:27.274Z,114.08
2019-01-26T05:32:56.700Z,119.35
2019-01-26T05:35:26.487Z,118.67
2019-01-26T05:37:55.908Z,123.70
2019-01-26T05:40:25.486Z,118.00
2019-01-26T05:42:55.223Z,117.10
2019-01-26T05:45:24.769Z,111.93
2019-01-26T05:47:54.574Z,120.62
2019-01-26T05:50:25.892Z,117.13
2019-01-26T05:52:57.688Z,117.87
2019-01-26T05:55:27.405Z,116.45
2019-01-26T05:57:57.034Z,112.53
2019-01-26T06:00:31.958Z,111.75
2019-01-26T06:03:01.468Z,107.67
2019-01-26T06:05:30.910Z,105.70
2019-01-26T06:08:00.350Z,120.33
2019-01-26T06:10:29.898Z,112.10
2019-01-26T06:12:59.399Z,117.20
2019-01-26T06:15:28.858Z,116.37
2019-01-26T06:17:58.290Z,110.85
2019-01-26T06:20:28.104Z,114.37
2019-01-26T06:22:57.542Z,119.82
2019-01-26T06:25:27.042Z,112.57
2019-01-26T06:27:56.832Z,116.37
2019-01-26T06:30:26.964Z,111.33
2019-01-26T06:32:58.805Z,113.00
2019-01-26T06:35:28.272Z,124.70
2019-01-26T06:37:57.723Z,123.02
2019-01-26T06:40:27.167Z,122.25
2019-01-26T06:42:56.943Z,121.57
2019-01-26T06:45:26.383Z,123.67
2019-01-26T06:48:02.048Z,118.80
2019-01-26T06:50:28.385Z,121.65
2019-01-26T06:52:57.927Z,121.42
2019-01-26T06:55:27.367Z,138.22
2019-01-26T06:57:57.108Z,112.05
2019-01-26T07:00:30.699Z,117.08
2019-01-26T07:03:01.388Z,117.13
2019-01-26T07:05:58.787Z,106.00
2019-01-26T07:08:28.235Z,113.67
2019-01-26T07:10:57.705Z,105.70
2019-01-26T07:13:27.335Z,109.70
2019-01-26T07:15:59.215Z,107.32
2019-01-26T07:18:28.846Z,107.17
2019-01-26T07:20:58.293Z,112.80
2019-01-26T07:23:28.450Z,114.17
2019-01-26T07:25:57.890Z,114.88
2019-01-26T07:28:27.458Z,111.17
2019-01-26T07:30:56.935Z,119.20
2019-01-26T07:33:26.635Z,121.02
2019-01-26T07:35:56.865Z,116.67
2019-01-26T07:38:26.848Z,120.30
2019-01-26T07:40:56.527Z,124.97
2019-01-26T07:43:26.013Z,119.95
2019-01-26T07:45:55.533Z,127.78
2019-01-26T07:48:25.037Z,283.02
2019-01-26T07:50:54.950Z,135.60
2019-01-26T07:53:24.475Z,273.15
2019-01-26T07:55:54.063Z,374.48
2019-01-26T07:58:23.480Z,123.58
2019-01-26T08:00:52.974Z,159.22
2019-01-26T08:03:22.591Z,122.55
2019-01-26T08:05:52.113Z,409.55
2019-01-26T08:08:25.452Z,360.02
2019-01-26T08:10:55.264Z,138.03
2019-01-26T08:13:24.718Z,705.50
2019-01-26T08:15:54.168Z,137.55
2019-01-26T08:18:24.178Z,141.10
2019-01-26T08:20:54.008Z,187.18
2019-01-26T08:23:23.434Z,333.65
2019-01-26T08:25:52.940Z,215.22
2019-01-26T08:28:22.431Z,283.25
2019-01-26T08:30:51.917Z,214.02
2019-01-26T08:33:21.324Z,175.42
2019-01-26T08:35:50.775Z,133.37
2019-01-26T08:38:20.484Z,206.68
2019-01-26T08:40:49.981Z,202.50
2019-01-26T08:43:19.454Z,224.42
2019-01-26T08:45:48.901Z,155.15
2019-01-26T08:48:18.349Z,161.37
2019-01-26T08:50:47.842Z,166.85
2019-01-26T08:53:17.298Z,247.65
2019-01-26T08:55:46.904Z,370.75
2019-01-26T08:58:16.504Z,275.85
2019-01-26T09:00:45.958Z,192.87
2019-01-26T09:03:24.585Z,218.80
2019-01-26T09:06:06.043Z,170.70
2019-01-26T09:08:35.515Z,188.05
2019-01-26T09:11:05.078Z,147.62
2019-01-26T09:13:34.521Z,163.72
2019-01-26T09:16:04.885Z,1241.60
2019-01-26T09:18:38.728Z,416.20
2019-01-26T09:21:05.600Z,138.15
2019-01-26T09:23:35.040Z,145.68
2019-01-26T09:26:04.880Z,130.18
2019-01-26T09:28:34.472Z,136.80
2019-01-26T09:31:04.434Z,122.07
2019-01-26T09:33:34.512Z,122.87
2019-01-26T09:36:04.211Z,123.03
2019-01-26T09:38:33.594Z,130.07
2019-01-26T09:41:03.269Z,145.65
2019-01-26T09:43:32.756Z,211.12
2019-01-26T09:46:02.210Z,125.95
2019-01-26T09:48:31.784Z,118.08
2019-01-26T09:51:01.513Z,120.57
2019-01-26T09:53:31.019Z,106.92
2019-01-26T09:56:00.453Z,107.97
2019-01-26T09:58:29.909Z,138.62
2019-01-26T10:00:59.379Z,126.07
2019-01-26T10:03:29.359Z,115.12
2019-01-26T10:05:58.797Z,119.22
2019-01-26T10:08:28.387Z,112.70
2019-01-26T10:10:57.830Z,109.97
2019-01-26T10:13:27.296Z,130.20
2019-01-26T10:15:57.012Z,119.63
2019-01-26T10:18:26.470Z,123.90
2019-01-26T10:20:56.044Z,112.92
2019-01-26T10:23:25.840Z,109.12
2019-01-26T10:25:55.309Z,118.67
2019-01-26T10:28:24.805Z,112.95
2019-01-26T10:30:59.991Z,142.25
2019-01-26T10:33:29.560Z,127.90
2019-01-26T10:36:18.454Z,122.05
2019-01-26T10:39:07.159Z,130.70
2019-01-26T10:41:46.042Z,118.30
2019-01-26T10:44:20.531Z,110.97
2019-01-26T10:46:49.956Z,116.20
2019-01-26T10:49:19.475Z,110.60
2019-01-26T10:51:49.076Z,115.92
2019-01-26T10:54:18.840Z,110.12
2019-01-26T10:56:48.417Z,124.12
2019-01-26T10:59:17.924Z,89.62
2019-01-26T11:01:47.659Z,171.90
2019-01-26T11:04:17.278Z,138.62
2019-01-26T11:06:47.076Z,102.35
2019-01-26T11:09:16.644Z,126.07
2019-01-26T11:11:46.643Z,90.50
2019-01-26T11:14:16.122Z,118.65
2019-01-26T11:16:45.801Z,114.80
2019-01-26T11:19:15.204Z,143.57
2019-01-26T11:21:44.663Z,167.80
2019-01-26T11:24:14.085Z,103.53
2019-01-26T11:26:49.240Z,114.37
2019-01-26T11:29:14.858Z,106.87
2019-01-26T11:31:45.061Z,102.80
2019-01-26T11:34:14.509Z,122.10
2019-01-26T11:36:43.931Z,116.65
2019-01-26T11:39:13.657Z,149.32
2019-01-26T11:41:43.019Z,165.68
2019-01-26T11:44:12.522Z,112.37
2019-01-26T11:46:52.983Z,113.72
2019-01-26T11:49:22.448Z,166.47
2019-01-26T11:52:10.832Z,307.73
2019-01-26T11:54:58.019Z,121.00
2019-01-26T11:57:30.354Z,125.15
2019-01-26T12:00:34.107Z,147.07
2019-01-26T12:03:25.273Z,284.80
2019-01-26T12:05:59.509Z,132.10
2019-01-26T12:08:29.092Z,182.33
2019-01-26T12:10:58.536Z,128.18
2019-01-26T12:13:28.037Z,121.50
2019-01-26T12:15:57.643Z,137.05
2019-01-26T12:18:27.135Z,490.45
2019-01-26T12:20:56.608Z,118.42
2019-01-26T12:23:26.065Z,149.55
2019-01-26T12:25:55.580Z,119.35
2019-01-26T12:28:25.152Z,159.37
2019-01-26T12:30:54.660Z,115.05
2019-01-26T12:33:24.303Z,124.82
2019-01-26T12:35:53.793Z,146.15
2019-01-26T12:38:23.496Z,176.35
2019-01-26T12:40:53.001Z,183.27
2019-01-26T12:43:22.641Z,118.62
2019-01-26T12:45:52.077Z,127.32
2019-01-26T12:48:21.546Z,131.37
2019-01-26T12:50:51.081Z,114.62
2019-01-26T12:53:30.692Z,112.32
2019-01-26T12:56:00.176Z,225.03
2019-01-26T12:58:29.601Z,343.23
2019-01-26T13:00:59.101Z,123.95
2019-01-26T13:03:28.578Z,425.62
2019-01-26T13:05:58.040Z,193.82
2019-01-26T13:08:27.482Z,132.87
2019-01-26T13:11:00.220Z,287.50
2019-01-26T13:13:29.714Z,132.97
2019-01-26T13:15:59.182Z,123.22
2019-01-26T13:18:28.710Z,136.43
2019-01-26T13:20:58.262Z,168.02
2019-01-26T13:23:27.704Z,134.20
2019-01-26T13:25:57.188Z,179.97
2019-01-26T13:28:26.653Z,119.05
2019-01-26T13:30:56.089Z,115.40
2019-01-26T13:33:25.594Z,138.07
2019-01-26T13:35:55.052Z,139.00
2019-01-26T13:38:24.468Z,125.75
2019-01-26T13:40:54.157Z,135.95
2019-01-26T13:43:23.587Z,115.37
2019-01-26T13:45:53.558Z,124.22
2019-01-26T13:48:23.024Z,145.65
2019-01-26T13:50:52.504Z,124.38
2019-01-26T13:53:22.070Z,195.17
2019-01-26T13:55:51.521Z,168.87
2019-01-26T13:58:22.139Z,195.92
2019-01-26T14:00:51.717Z,131.87
2019-01-26T14:03:21.306Z,129.38
2019-01-26T14:05:50.879Z,175.18
2019-01-26T14:08:20.408Z,265.62
2019-01-26T14:10:49.837Z,166.07
2019-01-26T14:13:19.321Z,181.30
2019-01-26T14:15:48.810Z,166.28
2019-01-26T14:18:18.278Z,160.50
2019-01-26T14:20:47.820Z,470.70
2019-01-26T14:23:17.298Z,515.37
2019-01-26T14:25:46.757Z,288.57
2019-01-26T14:28:16.293Z,221.05
2019-01-26T14:30:49.483Z,130.90
2019-01-26T14:33:18.864Z,129.53
2019-01-26T14:35:48.415Z,127.92
2019-01-26T14:38:17.905Z,404.20
2019-01-26T14:40:47.472Z,389.72
2019-01-26T14:43:16.976Z,317.48
2019-01-26T14:45:46.431Z,190.00
2019-01-26T14:48:15.885Z,150.90
2019-01-26T14:50:45.339Z,220.97
2019-01-26T14:53:14.853Z,174.23
2019-01-26T14:55:44.353Z,153.05
2019-01-26T14:58:13.844Z,183.93
2019-01-26T15:00:43.341Z,188.10
2019-01-26T15:03:12.792Z,171.28
2019-01-26T15:05:42.307Z,280.40
2019-01-26T15:08:12.261Z,803.52
2019-01-26T15:10:41.795Z,234.57
2019-01-26T15:13:11.232Z,256.30
2019-01-26T15:15:40.785Z,284.02
2019-01-26T15:18:10.256Z,339.35
2019-01-26T15:20:40.911Z,230.10
2019-01-26T15:23:10.428Z,163.25
2019-01-26T15:25:39.944Z,148.07
2019-01-26T15:28:09.487Z,162.50
2019-01-26T15:30:41.484Z,154.40
2019-01-26T15:33:11.280Z,163.72
2019-01-26T15:35:40.832Z,184.90
2019-01-26T15:38:11.579Z,185.35
2019-01-26T15:40:41.006Z,196.82
2019-01-26T15:43:10.440Z,195.97
2019-01-26T15:45:42.840Z,196.57
2019-01-26T15:48:12.435Z,187.60
2019-01-26T15:50:42.063Z,189.90
2019-01-26T15:53:11.641Z,283.05
2019-01-26T15:55:41.201Z,337.72
2019-01-26T15:58:10.711Z,453.77
2019-01-26T16:00:43.574Z,279.10
2019-01-26T16:03:13.499Z,267.70
2019-01-26T16:05:42.967Z,258.65
2019-01-26T16:08:12.835Z,261.62
2019-01-26T16:10:42.304Z,638.77
2019-01-26T16:13:11.780Z,667.98
2019-01-26T16:15:41.225Z,605.15
2019-01-26T16:18:13.659Z,403.77
2019-01-26T16:20:43.321Z,266.20
2019-01-26T16:23:12.801Z,273.82
2019-01-26T16:25:42.244Z,265.25
2019-01-26T16:28:11.676Z,290.57
2019-01-26T16:30:41.324Z,328.77
2019-01-26T16:33:10.932Z,344.25
2019-01-26T16:35:40.376Z,327.07
2019-01-26T16:38:09.992Z,368.80
2019-01-26T16:40:39.616Z,347.12
2019-01-26T16:43:09.106Z,379.43
2019-01-26T16:45:39.977Z,362.10
2019-01-26T16:48:12.154Z,331.00
2019-01-26T16:50:41.686Z,315.52
2019-01-26T16:53:11.494Z,231.35
2019-01-26T16:55:41.087Z,211.43
2019-01-26T16:58:10.577Z,208.05
2019-01-26T17:00:42.240Z,200.55
2019-01-26T17:03:11.855Z,221.72
2019-01-26T17:05:41.802Z,234.12
2019-01-26T17:08:11.488Z,271.77
2019-01-26T17:10:41.038Z,262.08
2019-01-26T17:13:10.465Z,273.60
2019-01-26T17:15:40.109Z,252.13
2019-01-26T17:18:13.935Z,256.55
2019-01-26T17:20:42.516Z,252.65
2019-01-26T17:23:12.004Z,247.75
2019-01-26T17:25:41.502Z,234.90
2019-01-26T17:28:10.969Z,255.10
2019-01-26T17:30:41.807Z,282.35
2019-01-26T17:33:11.219Z,288.60
2019-01-26T17:35:41.127Z,311.55
2019-01-26T17:38:10.574Z,404.12
2019-01-26T17:40:40.096Z,396.82
2019-01-26T17:43:09.641Z,314.85
2019-01-26T17:45:39.112Z,329.02
2019-01-26T17:48:09.312Z,225.68
2019-01-26T17:50:42.372Z,252.75
2019-01-26T17:53:09.913Z,230.05
2019-01-26T17:55:39.598Z,213.03
2019-01-26T17:58:09.382Z,210.28
2019-01-26T18:00:57.866Z,212.00
2019-01-26T18:03:27.608Z,198.05
2019-01-26T18:05:57.344Z,197.37
2019-01-26T18:08:26.763Z,197.40
2019-01-26T18:10:56.194Z,196.82
2019-01-26T18:13:25.797Z,206.50
2019-01-26T18:15:55.259Z,217.95
2019-01-26T18:18:24.821Z,255.10
2019-01-26T18:20:54.335Z,273.60
2019-01-26T18:23:28.383Z,269.25
2019-01-26T18:25:57.980Z,243.40
2019-01-26T18:28:27.403Z,230.25
2019-01-26T18:30:56.901Z,243.30
2019-01-26T18:33:26.532Z,267.90
2019-01-26T18:35:56.060Z,353.95
2019-01-26T18:38:25.722Z,380.48
2019-01-26T18:40:55.189Z,257.80
2019-01-26T18:43:43.697Z,315.87
2019-01-26T18:46:13.154Z,310.60
2019-01-26T18:48:42.605Z,360.52
2019-01-26T18:51:12.089Z,288.30
2019-01-26T18:53:42.661Z,295.60
2019-01-26T18:56:12.257Z,321.57
2019-01-26T18:58:41.688Z,315.77
2019-01-26T19:01:11.179Z,241.25
2019-01-26T19:04:18.070Z,361.83
2019-01-26T19:06:47.577Z,372.98
2019-01-26T19:09:17.062Z,516.83
2019-01-26T19:11:46.541Z,431.35
2019-01-26T19:14:16.159Z,518.03
2019-01-26T19:16:45.639Z,506.37
2019-01-26T19:19:15.320Z,368.12
2019-01-26T19:21:44.841Z,420.95
2019-01-26T19:24:14.317Z,483.30
2019-01-26T19:26:43.796Z,441.42
2019-01-26T19:29:13.492Z,421.37
2019-01-26T19:31:42.962Z,332.32
2019-01-26T19:34:12.421Z,411.25
2019-01-26T19:36:41.881Z,899.92
2019-01-26T19:39:11.631Z,406.30
2019-01-26T19:41:41.095Z,376.10
2019-01-26T19:44:10.546Z,239.23
2019-01-26T19:46:40.060Z,244.87
2019-01-26T19:49:09.502Z,271.70
2019-01-26T19:51:39.006Z,273.52
2019-01-26T19:54:08.487Z,305.15
2019-01-26T19:56:37.938Z,344.95
2019-01-26T19:59:07.437Z,218.27
2019-01-26T20:01:37.081Z,236.68
2019-01-26T20:04:07.530Z,231.28
2019-01-26T20:06:37.165Z,226.77
2019-01-26T20:09:09.549Z,240.05
2019-01-26T20:11:39.214Z,240.30
2019-01-26T20:14:09.272Z,391.38
2019-01-26T20:16:38.737Z,279.43
2019-01-26T20:19:08.181Z,421.27
2019-01-26T20:21:37.628Z,214.20
2019-01-26T20:24:07.250Z,263.85
2019-01-26T20:26:36.689Z,278.52
2019-01-26T20:29:06.436Z,238.82
2019-01-26T20:31:35.932Z,481.20
2019-01-26T20:34:05.539Z,774.75
2019-01-26T20:36:34.969Z,254.30
2019-01-26T20:39:07.206Z,407.25
2019-01-26T20:41:36.699Z,382.95
2019-01-26T20:44:06.360Z,442.65
2019-01-26T20:46:35.838Z,358.02
2019-01-26T20:49:05.384Z,242.18
2019-01-26T20:51:34.878Z,229.25
2019-01-26T20:54:04.329Z,242.73
2019-01-26T20:56:33.997Z,271.25
2019-01-26T20:59:03.439Z,291.60
2019-01-26T21:01:32.922Z,323.68
2019-01-26T21:04:02.395Z,1446.90
2019-01-26T21:06:31.859Z,612.85
2019-01-26T21:09:01.321Z,223.87
2019-01-26T21:11:30.827Z,247.73
2019-01-26T21:14:00.290Z,996.67
2019-01-26T21:16:29.721Z,805.35
2019-01-26T21:18:59.346Z,1999.90
2019-01-26T21:21:31.874Z,1988.73
2019-01-26T21:23:59.872Z,1784.37
2019-01-26T21:26:29.407Z,1234.88
2019-01-26T21:28:58.978Z,1191.38
2019-01-26T21:31:28.785Z,1918.68
2019-01-26T21:33:58.436Z,301.02
2019-01-26T21:36:28.202Z,641.12
2019-01-26T21:38:57.773Z,517.90
2019-01-26T21:41:27.205Z,322.77
2019-01-26T21:43:56.720Z,253.40
2019-01-26T21:46:26.193Z,234.83
2019-01-26T21:48:55.681Z,253.32
2019-01-26T21:51:25.348Z,255.15
2019-01-26T21:53:54.956Z,258.27
2019-01-26T21:56:24.554Z,273.82
2019-01-26T21:58:53.968Z,259.77
2019-01-26T22:01:23.640Z,351.57
2019-01-26T22:03:53.118Z,263.53
2019-01-26T22:06:22.847Z,259.52
2019-01-26T22:08:52.506Z,251.03
2019-01-26T22:11:22.154Z,220.90
2019-01-26T22:13:51.582Z,245.30
2019-01-26T22:16:21.457Z,259.48
2019-01-26T22:18:50.959Z,299.57
2019-01-26T22:21:20.344Z,313.65
2019-01-26T22:23:49.950Z,303.62
2019-01-26T22:26:19.541Z,297.23
2019-01-26T22:28:49.022Z,313.87
2019-01-26T22:31:18.485Z,311.92
2019-01-26T22:33:47.998Z,296.70
2019-01-26T22:36:17.404Z,290.92
2019-01-26T22:38:46.855Z,302.60
2019-01-26T22:41:16.521Z,360.05
2019-01-26T22:43:45.991Z,360.17
2019-01-26T22:46:15.458Z,388.48
2019-01-26T22:48:44.951Z,359.55
2019-01-26T22:51:14.329Z,381.35
2019-01-26T22:53:43.901Z,331.98
2019-01-26T22:56:13.376Z,353.32
2019-01-26T22:58:42.875Z,350.43
2019-01-26T23:01:29.314Z,313.90
2019-01-26T23:04:28.756Z,342.60
2019-01-26T23:07:13.048Z,316.02
2019-01-26T23:10:23.719Z,279.02
2019-01-26T23:13:37.153Z,282.07
2019-01-26T23:16:55.921Z,378.12
2019-01-26T23:19:33.133Z,270.55
2019-01-26T23:22:30.028Z,273.10
2019-01-26T23:25:42.502Z,244.05
2019-01-26T23:28:49.547Z,257.92
2019-01-26T23:31:21.074Z,314.35
2019-01-26T23:33:54.712Z,292.85
2019-01-26T23:36:24.851Z,285.52
2019-01-26T23:38:54.291Z,271.23
2019-01-26T23:41:23.695Z,267.87
2019-01-26T23:43:53.213Z,262.45
2019-01-26T23:46:22.976Z,263.48
2019-01-26T23:48:52.495Z,272.27
2019-01-26T23:51:21.966Z,306.10
2019-01-26T23:53:51.446Z,390.30
2019-01-26T23:56:20.848Z,321.05
2019-01-26T23:58:50.322Z,322.17
